• Join FlightAware (Why Join?)
  • Login
  • US Flag 
07:38AM EDT


 

Airport Tracker/Info


-or-


 

Live Flight TrackerFlight Track Log ✈ AAY853 ✈ 12-May-2014 ✈ KPBG - KPIE

Flight Track Log - Related Links

Times and Time Zones

All times are in EDT time to prevent confusion due to time zone crossing. See the AAY853 flight status page for this flight to view local times or setup timezone preferences in your user account.

Time Position Orientation Groundspeed Altitude Reporting Facility
EDT Latitude Longitude Course Direction KTS MPH feet Rate Location/Type
10:31AM 44.4920 -73.3680 181° South 286 329 5,800  Level FlightAware ADS-B
10:31AM 44.4860 -73.3680 186° South 285 328 6,100 3,120 Climbing FlightAware ADS-B
10:31AM 44.4580 -73.3730 191° South 284 327 7,100 3,120 Climbing FlightAware ADS-B
10:32AM 44.4170 -73.3870 195° South 286 329 8,800 3,000 Climbing FlightAware ADS-B
10:32AM 44.3940 -73.3950 195° South 291 335 9,600 1,920 Climbing FlightAware ADS-B
10:32AM 44.3730 -73.4020 192° South 293 337 9,900 480 Climbing FlightAware ADS-B
10:32AM 44.3470 -73.4090 191° South 289 333 9,900 720 Level FlightAware ADS-B
10:33AM 44.3070 -73.4180 190° South 303 349 10,500 1,140 Climbing FlightAware ADS-B
10:34AM 44.2450 -73.4340 191° South 350 403 11,300 1,680 Climbing FlightAware ADS-B
10:34AM 44.1890 -73.4480 191° South 361 415 12,700 2,400 Climbing FlightAware ADS-B
10:37AM 43.9541 -73.5065 190° South 395 455 18,400 2,220 Climbing FlightAware ADS-B (CYOW)
10:38AM 43.7910 -73.5470 191° South 409 471 21,200 1,800 Climbing FlightAware ADS-B
10:39AM 43.6859 -73.5734 190° South 424 488 22,700 1,440 Climbing FlightAware ADS-B (CYOW)
10:39AM 43.6600 -73.5800 191° South 430 495 22,900 1,080 Climbing FlightAware ADS-B
10:40AM 43.6050 -73.5930 191° South 438 504 23,500 1,320 Climbing FlightAware ADS-B
10:40AM 43.5361 -73.6125 197° South 440 506 24,300 1,500 Climbing FlightAware ADS-B (CYOW)
10:41AM 43.4013 -73.6918 204° Southwest 447 514 26,100 1,380 Climbing FlightAware ADS-B (CYOW)
10:42AM 43.3404 -73.7284 204° Southwest 452 520 26,700 1,140 Climbing FlightAware ADS-B (CYOW)
10:42AM 43.2786 -73.7567 189° South 471 542 27,300 1,080 Climbing FlightAware ADS-B (CYOW)
10:43AM 43.1897 -73.7643 183° South 487 560 28,000 1,020 Climbing FlightAware ADS-B (CYOW)
10:44AM 43.1221 -73.7702 184° South 493 567 28,500 960 Climbing FlightAware ADS-B (CYOW)
10:44AM 43.0516 -73.7766 184° South 502 578 29,100 1,260 Climbing FlightAware ADS-B (CYOW)
10:45AM 42.9677 -73.7839 184° South 501 577 29,900 900 Climbing FlightAware ADS-B (CYOW)
10:46AM 42.8019 -73.7989 184° South 502 578 30,700 900 Climbing Boston Center
10:48AM 42.4531 -73.8949 193° South 478 550 33,400 900 Climbing FlightAware ADS-B (KWWD)
10:52AM 42.0555 -74.0181 193° South 485 558 36,200 840 Climbing FlightAware ADS-B (KSNC)
10:52AM 41.9563 -74.0487 193° South 483 556 36,700 900 Climbing FlightAware ADS-B (KSNC)
10:53AM 41.8865 -74.0701 193° South 480 552 37,200 540 Climbing FlightAware ADS-B (KSNC)
10:54AM 41.7850 -74.1011 193° South 486 559 37,400 420 Climbing FlightAware ADS-B (KSNC)
10:54AM 41.7284 -74.1183 193° South 484 557 37,800 480 Climbing FlightAware ADS-B (KSNC)
10:55AM 41.6481 -74.1428 193° South 484 557 38,000 120 Climbing FlightAware ADS-B (KSNC)
10:56AM 41.5235 -74.1804 193° South 479 551 38,000  Level FlightAware ADS-B (KSNC)
10:56AM 41.4640 -74.1980 193° South 476 548 38,000  Level FlightAware ADS-B
10:56AM 41.4417 -74.2050 193° South 476 548 38,000  Level FlightAware ADS-B (KSNC)
10:57AM 41.3990 -74.2180 193° South 480 552 38,000  Level FlightAware ADS-B
10:57AM 41.3780 -74.2243 193° South 480 552 38,000  Level FlightAware ADS-B (KSNC)
10:57AM 41.3330 -74.2380 193° South 483 556 38,000  Level FlightAware ADS-B
10:57AM 41.2861 -74.2518 193° South 484 557 38,000 60 Level FlightAware ADS-B (KSNC)
10:58AM 41.2163 -74.2756 200° South 477 549 38,100 120 Climbing FlightAware ADS-B (KSNC)
10:58AM 41.2042 -74.2825 196° South 473 544 38,100  Level FlightAware ADS-B (KWWD)
10:58AM 41.1749 -74.3053 216° Southwest 458 527 38,100  Level FlightAware ADS-B (KSNC)
10:59AM 41.1260 -74.3646 224° Southwest 445 512 38,100  Level FlightAware ADS-B (KSNC)
10:59AM 41.0798 -74.4233 224° Southwest 441 507 38,100 -120 Level FlightAware ADS-B (KSNC)
11:00AM 41.0340 -74.4812 224° Southwest 434 499 38,000 -120 Descending FlightAware ADS-B (KWWD)
11:00AM 40.9896 -74.5372 224° Southwest 439 505 38,000  Level FlightAware ADS-B (KSNC)
11:01AM 40.9248 -74.6192 224° Southwest 434 499 38,000  Level FlightAware ADS-B (KWWD)
11:02AM 40.8596 -74.7001 224° Southwest 434 499 38,000  Level FlightAware ADS-B (KWWD)
11:02AM 40.8416 -74.7224 223° Southwest 442 509 38,000  Level FlightAware ADS-B (KPHL)
11:03AM 40.7583 -74.8256 223° Southwest 444 511 38,000  Level FlightAware ADS-B (KWWD)
11:03AM 40.7132 -74.8813 223° Southwest 445 512 38,000  Level FlightAware ADS-B (KWWD)
11:04AM 40.6634 -74.9428 223° Southwest 446 513 38,000  Level FlightAware ADS-B (KWWD)
11:05AM 40.6185 -74.9982 223° Southwest 447 514 38,000  Level FlightAware ADS-B (KPHL)
11:05AM 40.5704 -75.0575 223° Southwest 448 516 38,000  Level FlightAware ADS-B (KPHL)
11:06AM 40.5178 -75.1221 224° Southwest 446 513 38,000  Level FlightAware ADS-B (KWWD)
11:06AM 40.4709 -75.1795 224° Southwest 448 516 38,000  Level FlightAware ADS-B (KWWD)
11:07AM 40.4253 -75.2351 224° Southwest 449 517 38,000  Level FlightAware ADS-B (KWWD)
11:07AM 40.3737 -75.2980 224° Southwest 451 519 38,000  Level FlightAware ADS-B (KWWD)
11:08AM 40.3194 -75.3641 223° Southwest 459 528 38,000  Level FlightAware ADS-B (KPHL)
11:08AM 40.2629 -75.4326 223° Southwest 459 528 38,000  Level FlightAware ADS-B (KWWD)
11:09AM 40.2149 -75.4906 223° Southwest 461 531 38,000  Level FlightAware ADS-B
11:10AM 40.1547 -75.5633 223° Southwest 462 532 38,000  Level FlightAware ADS-B
11:10AM 40.1153 -75.6109 223° Southwest 463 533 38,000  Level FlightAware ADS-B
11:11AM 40.0622 -75.6746 223° Southwest 461 531 38,000  Level FlightAware ADS-B
11:11AM 40.0125 -75.7343 223° Southwest 461 531 38,000  Level FlightAware ADS-B (KAPG)
11:12AM 39.9572 -75.8006 223° Southwest 460 529 38,000  Level FlightAware ADS-B (KAPG)
11:12AM 39.9112 -75.8557 223° Southwest 459 528 38,000  Level FlightAware ADS-B (KPHL)
11:13AM 39.8593 -75.9176 223° Southwest 459 528 38,000  Level FlightAware ADS-B
11:13AM 39.7941 -75.9952 222° Southwest 458 527 38,000  Level FlightAware ADS-B
11:14AM 39.7451 -76.0533 222° Southwest 457 526 38,000  Level FlightAware ADS-B
11:14AM 39.7066 -76.0989 222° Southwest 455 524 38,000  Level FlightAware ADS-B
11:15AM 39.6434 -76.1737 223° Southwest 455 524 38,000  Level FlightAware ADS-B (KDCA)
11:15AM 39.6232 -76.1976 223° Southwest 454 522 38,000  Level FlightAware ADS-B (KBWI)
11:15AM 39.6147 -76.2077 222° Southwest 454 522 38,000  Level FlightAware ADS-B (KWWD)
11:15AM 39.6353 -76.1834 223° Southwest 454 522 38,000  Level FlightAware ADS-B (KDAA)
11:16AM 39.5984 -76.2270 222° Southwest 453 521 38,000  Level FlightAware ADS-B (KAPG)
11:17AM 39.4809 -76.3656 224° Southwest 451 519 38,000  Level FlightAware ADS-B (KDAA)
11:17AM 39.4403 -76.4220 231° Southwest 446 513 38,000  Level FlightAware ADS-B (KDAA)
11:17AM 39.4501 -76.4073 231° Southwest 446 513 38,000  Level FlightAware ADS-B (KBWI)
11:18AM 39.4002 -76.4859 231° Southwest 446 513 38,000  Level FlightAware ADS-B (KDAA)
11:18AM 39.3649 -76.5414 231° Southwest 446 513 38,000  Level FlightAware ADS-B (KDAA)
11:18AM 39.3764 -76.5234 231° Southwest 447 514 38,000  Level FlightAware ADS-B
11:19AM 39.3207 -76.6108 231° Southwest 446 513 38,000  Level FlightAware ADS-B (KDAA)
11:19AM 39.3079 -76.6308 231° Southwest 442 509 38,000  Level FlightAware ADS-B (KWWD)
11:19AM 39.3071 -76.6320 231° Southwest 446 513 38,000 180 Level FlightAware ADS-B (KDAA)
11:19AM 39.2696 -76.6907 231° Southwest 445 512 38,100 120 Climbing FlightAware ADS-B (KBWI)
11:20AM 39.2424 -76.7333 231° Southwest 443 510 38,100 -180 Level FlightAware ADS-B (KDAA)
11:20AM 39.2034 -76.7941 231° Southwest 440 506 38,000 -120 Descending FlightAware ADS-B (KDAA)
11:21AM 39.1648 -76.8541 231° Southwest 438 504 38,000  Level FlightAware ADS-B (KDAA)
11:21AM 39.1636 -76.8561 231° Southwest 438 504 38,000  Level FlightAware ADS-B (KBWI)
11:21AM 39.1560 -76.8679 230° Southwest 439 505 38,000  Level FlightAware ADS-B (KAPG)
11:21AM 39.1338 -76.9025 231° Southwest 438 504 38,000  Level FlightAware ADS-B (KDAA)
11:21AM 39.1165 -76.9292 231° Southwest 438 504 38,000  Level FlightAware ADS-B (KDCA)
11:22AM 39.0875 -76.9742 231° Southwest 438 504 38,000  Level FlightAware ADS-B (KDAA)
11:22AM 39.0737 -76.9953 231° Southwest 435 501 38,000  Level FlightAware ADS-B (KWWD)
11:22AM 39.0383 -77.0434 225° Southwest 442 509 38,000  Level FlightAware ADS-B (KDAA)
11:22AM 39.0368 -77.0453 225° Southwest 442 509 38,000  Level FlightAware ADS-B (KDCA)
11:22AM 39.0231 -77.0614 221° Southwest 445 512 38,000  Level FlightAware ADS-B (KDCA)
11:23AM 38.9781 -77.1107 221° Southwest 444 511 38,000  Level FlightAware ADS-B (KDAA)
11:23AM 38.9297 -77.1640 221° Southwest 445 512 38,000  Level FlightAware ADS-B (KDAA)
11:24AM 38.9256 -77.1684 221° Southwest 445 512 38,000  Level FlightAware ADS-B (KDCA)
11:24AM 38.8830 -77.2153 221° Southwest 444 511 38,000  Level FlightAware ADS-B (KDAA)
11:24AM 38.8955 -77.2016 221° Southwest 444 511 38,000  Level FlightAware ADS-B (KAPG)
11:24AM 38.8364 -77.2663 221° Southwest 443 510 38,000  Level FlightAware ADS-B (KDAA)
11:25AM 38.8165 -77.2882 221° Southwest 442 509 38,000  Level FlightAware ADS-B (KDCA)
11:25AM 38.7898 -77.3174 221° Southwest 442 509 38,000  Level FlightAware ADS-B (KDAA)
11:25AM 38.7673 -77.3420 221° Southwest 442 509 38,000  Level FlightAware ADS-B (KWWD)
11:25AM 38.7430 -77.3685 221° Southwest 441 507 38,000  Level FlightAware ADS-B (KDAA)
11:26AM 38.7195 -77.3941 221° Southwest 442 509 38,000  Level FlightAware ADS-B (KWWD)
11:26AM 38.6970 -77.4186 221° Southwest 441 507 38,000  Level FlightAware ADS-B (KDAA)
11:26AM 38.6593 -77.4595 221° Southwest 442 509 38,000  Level FlightAware ADS-B (KDCA)
11:26AM 38.6497 -77.4700 221° Southwest 442 509 38,000  Level FlightAware ADS-B (KDAA)
11:27AM 38.6022 -77.5215 221° Southwest 444 511 38,000  Level FlightAware ADS-B (KDAA)
11:27AM 38.5962 -77.5279 221° Southwest 444 511 38,000  Level FlightAware ADS-B (KDCA)
11:27AM 38.5683 -77.5582 220° Southwest 446 513 38,000  Level FlightAware ADS-B (KWWD)
11:27AM 38.5561 -77.5714 221° Southwest 446 513 38,000  Level FlightAware ADS-B (KDAA)
11:28AM 38.5351 -77.5942 220° Southwest 448 516 38,000  Level FlightAware ADS-B (KWWD)
11:28AM 38.5079 -77.6236 221° Southwest 446 513 38,000  Level FlightAware ADS-B (KDAA)
11:28AM 38.5025 -77.6295 220° Southwest 448 516 38,000 180 Level FlightAware ADS-B (KWWD)
11:28AM 38.4621 -77.6732 221° Southwest 448 516 38,100 120 Climbing FlightAware ADS-B (KDAA)
11:29AM 38.4414 -77.6954 221° Southwest 447 514 38,100  Level FlightAware ADS-B (KDCA)
11:29AM 38.4120 -77.7270 221° Southwest 447 514 38,100  Level FlightAware ADS-B (KDAA)
11:29AM 38.3775 -77.7642 221° Southwest 445 512 38,100  Level FlightAware ADS-B (KDCA)
11:29AM 38.3647 -77.7778 221° Southwest 445 512 38,100 -180 Level FlightAware ADS-B (KDAA)
11:30AM 38.3179 -77.8281 221° Southwest 443 510 38,000 -240 Descending FlightAware ADS-B (KDAA)
11:30AM 38.3130 -77.8333 221° Southwest 443 510 38,000  Level FlightAware ADS-B (KDCA)
11:30AM 38.2724 -77.8768 221° Southwest 442 509 38,000  Level FlightAware ADS-B (KDAA)
11:31AM 38.2638 -77.8859 220° Southwest 442 509 38,000  Level FlightAware ADS-B (KWWD)
11:31AM 38.2385 -77.9131 221° Southwest 440 506 38,000  Level FlightAware ADS-B (KDAA)
11:31AM 38.2225 -77.9302 220° Southwest 441 507 38,000  Level FlightAware ADS-B (KWWD)
11:32AM 38.1720 -77.9841 220° Southwest 437 503 38,000  Level FlightAware ADS-B (KCHO)
11:33AM 38.0678 -78.0949 220° Southwest 432 497 38,000  Level FlightAware ADS-B (KCHO)
11:33AM 38.0022 -78.1646 220° Southwest 431 496 38,000  Level FlightAware ADS-B (KDCA)
11:34AM 37.9916 -78.1755 217° Southwest 434 499 38,000  Level FlightAware ADS-B (KCHO)
11:34AM 37.9742 -78.1926 218° Southwest 428 493 38,000  Level FlightAware ADS-B (KWWD)
11:34AM 37.9226 -78.2405 216° Southwest 435 501 38,000  Level FlightAware ADS-B (KCHO)
11:35AM 37.8626 -78.2966 217° Southwest 436 502 38,000  Level FlightAware ADS-B (KCHO)
11:35AM 37.8128 -78.3440 217° Southwest 436 502 38,000  Level FlightAware ADS-B (KCHO)
11:36AM 37.7728 -78.3821 217° Southwest 436 502 38,000  Level FlightAware ADS-B (KCHO)
11:37AM 37.6974 -78.4537 217° Southwest 435 501 38,000  Level FlightAware ADS-B (KCHO)
11:37AM 37.6684 -78.4811 218° Southwest 429 494 38,000  Level FlightAware ADS-B (KWWD)
11:37AM 37.6573 -78.4916 217° Southwest 436 502 38,000  Level FlightAware ADS-B (KCHO)
11:38AM 37.6015 -78.5446 218° Southwest 431 496 38,000  Level FlightAware ADS-B (KWWD)
11:38AM 37.5518 -78.5914 217° Southwest 438 504 38,000  Level FlightAware ADS-B (KDCA)
11:39AM 37.4986 -78.6415 217° Southwest 439 505 38,000  Level FlightAware ADS-B (KWWD)
11:39AM 37.4238 -78.7117 217° Southwest 440 506 38,000  Level FlightAware ADS-B (KDCA)
11:40AM 37.3544 -78.7767 217° Southwest 440 506 38,000  Level FlightAware ADS-B (KDCA)
11:41AM 37.2758 -78.8501 217° Southwest 441 507 38,000  Level FlightAware ADS-B (KDCA)
11:42AM 37.2076 -78.9138 217° Southwest 442 509 38,000  Level FlightAware ADS-B (KWWD)
11:42AM 37.1312 -78.9849 217° Southwest 442 509 38,000  Level FlightAware ADS-B (KDCA)
11:43AM 37.0690 -79.0427 217° Southwest 442 509 38,000  Level FlightAware ADS-B (KDCA)
11:44AM 37.0103 -79.0970 217° Southwest 440 506 38,000  Level FlightAware ADS-B (KWWD)
11:48AM 36.6054 -79.4694 217° Southwest 437 503 38,000  Level FlightAware ADS-B (KDCA)
11:49AM 36.4882 -79.5763 217° Southwest 442 509 38,000  Level FlightAware ADS-B (KINT)
11:50AM 36.3592 -79.6932 216° Southwest 435 501 38,000  Level FlightAware ADS-B (KINT)
11:51AM 36.2930 -79.7531 216° Southwest 434 499 38,000  Level FlightAware ADS-B (KINT)
11:52AM 36.2653 -79.7782 216° Southwest 434 499 38,000  Level FlightAware ADS-B (KINT)
11:52AM 36.1696 -79.8646 216° Southwest 434 499 38,000  Level FlightAware ADS-B (KINT)
11:53AM 36.0954 -79.9313 216° Southwest 434 499 38,000  Level FlightAware ADS-B (KINT)
11:54AM 36.0268 -79.9832 207° Southwest 436 502 38,000  Level FlightAware ADS-B (KINT)
11:54AM 35.9513 -80.0235 202° Southwest 437 503 38,000  Level FlightAware ADS-B (KINT)
11:55AM 35.8795 -80.0598 202° Southwest 438 504 38,000  Level FlightAware ADS-B (KINT)
11:56AM 35.8041 -80.0979 202° Southwest 439 505 38,000  Level FlightAware ADS-B (KINT)
11:56AM 35.7257 -80.1373 202° Southwest 439 505 38,000  Level FlightAware ADS-B (KINT)
11:57AM 35.6490 -80.1758 202° Southwest 440 506 38,000  Level FlightAware ADS-B (KINT)
11:58AM 35.5735 -80.2136 202° Southwest 439 505 38,000  Level FlightAware ADS-B (KINT)
11:58AM 35.5017 -80.2496 202° Southwest 440 506 38,000  Level FlightAware ADS-B (KINT)
11:59AM 35.4241 -80.2883 202° Southwest 441 507 38,000  Level FlightAware ADS-B (KINT)
12:00PM 35.3191 -80.3407 202° Southwest 441 507 38,000  Level FlightAware ADS-B (KINT)
12:01PM 35.2428 -80.3785 202° Southwest 441 507 38,000  Level FlightAware ADS-B (KINT)
12:01PM 35.1631 -80.4181 202° Southwest 440 506 38,000  Level FlightAware ADS-B (KINT)
12:02PM 35.0827 -80.4578 202° Southwest 440 506 38,000  Level FlightAware ADS-B (KINT)
12:03PM 35.0075 -80.4949 202° Southwest 441 507 38,000  Level FlightAware ADS-B (KINT)
12:03PM 34.9420 -80.5271 202° Southwest 441 507 38,000  Level FlightAware ADS-B (KINT)
12:04PM 34.8680 -80.5636 202° Southwest 441 507 38,000  Level FlightAware ADS-B (KCDN)
12:04PM 34.8079 -80.5931 202° Southwest 442 509 38,000  Level FlightAware ADS-B (KCDN)
12:05PM 34.7469 -80.6229 202° Southwest 442 509 38,000  Level FlightAware ADS-B (KCDN)
12:06PM 34.6353 -80.6775 202° Southwest 446 513 38,000  Level FlightAware ADS-B (KCDN)
12:07PM 34.5512 -80.7186 202° Southwest 447 514 38,000  Level FlightAware ADS-B (KCDN)
12:07PM 34.4891 -80.7488 202° Southwest 448 516 38,000  Level FlightAware ADS-B (KCDN)
12:08PM 34.4018 -80.7912 202° Southwest 451 519 38,000  Level FlightAware ADS-B (KCDN)
12:09PM 34.3243 -80.8287 202° Southwest 451 519 38,000  Level FlightAware ADS-B (KCDN)
12:09PM 34.2584 -80.8605 202° Southwest 451 519 38,000  Level FlightAware ADS-B (KCDN)
12:10PM 34.1969 -80.8903 202° Southwest 452 520 38,000  Level FlightAware ADS-B (KCDN)
12:10PM 34.1305 -80.9223 202° Southwest 452 520 38,000  Level FlightAware ADS-B (KCDN)
12:11PM 34.0535 -80.9596 202° Southwest 451 519 38,000  Level FlightAware ADS-B (KCDN)
12:11PM 33.9848 -80.9925 202° Southwest 449 517 38,000  Level FlightAware ADS-B (KCDN)
12:12PM 33.9072 -81.0296 202° Southwest 449 517 38,000  Level FlightAware ADS-B (KCDN)
12:13PM 33.8508 -81.0565 202° Southwest 449 517 38,000  Level FlightAware ADS-B (KCDN)
12:13PM 33.7636 -81.0994 203° Southwest 447 514 38,000  Level FlightAware ADS-B (KCDN)
12:14PM 33.7032 -81.1298 203° Southwest 446 513 38,000  Level FlightAware ADS-B (KCDN)
12:15PM 33.6211 -81.1704 202° Southwest 444 511 38,000  Level FlightAware ADS-B (KCDN)
12:15PM 33.5647 -81.1982 202° Southwest 444 511 38,000  Level FlightAware ADS-B (KCDN)
12:16PM 33.4735 -81.2431 202° Southwest 444 511 38,000  Level FlightAware ADS-B (KCDN)
12:16PM 33.4170 -81.2708 202° Southwest 443 510 38,000  Level FlightAware ADS-B (KCDN)
12:17PM 33.3598 -81.2988 202° Southwest 442 509 38,000  Level FlightAware ADS-B (KCDN)
12:18PM 33.2792 -81.3384 202° Southwest 441 507 38,000  Level FlightAware ADS-B (KCDN)
12:21PM 33.7447 -81.1090 203° Southwest 445 512 38,000  Level FlightAware ADS-B (KLHW)
12:23PM 32.6989 -81.6236 203° Southwest 449 517 38,000  Level Jacksonville Center
12:24PM 32.5783 -81.6819 202° Southwest 431 496 38,000  Level Jacksonville Center
12:25PM 32.4764 -81.7303 202° Southwest 431 496 38,000  Level Jacksonville Center
12:26PM 32.3539 -81.7883 202° Southwest 436 502 38,000 -300 Level Jacksonville Center
12:27PM 32.2417 -81.8439 203° Southwest 431 496 37,500 -720 Descending Jacksonville Center
12:28PM 32.1333 -81.8769 194° South 436 502 36,600 -780 Descending Jacksonville Center
12:29PM 31.9997 -81.9028 189° South 449 517 36,000 -300 Descending Jacksonville Center
12:30PM 31.8872 -81.9261 190° South 449 517 36,000  Level Jacksonville Center
12:31PM 31.7517 -81.9519 189° South 449 517 36,000  Level Jacksonville Center
12:32PM 31.6286 -81.9750 189° South 449 517 36,000  Level Jacksonville Center
12:33PM 31.5183 -81.9958 189° South 444 511 36,000  Level Jacksonville Center
12:34PM 31.3931 -82.0214 190° South 449 517 36,000  Level Jacksonville Center
12:35PM 31.2722 -82.0442 189° South 449 517 36,000  Level Jacksonville Center
12:36PM 31.1469 -82.0722 191° South 449 517 36,000  Level Jacksonville Center
12:37PM 31.0261 -82.0925 188° South 449 517 36,000 -120 Level Jacksonville Center
12:43PM 30.3130 -82.2232 189° South 448 516 35,600 -240 Descending FlightAware ADS-B (KMCO)
12:44PM 30.1800 -82.2481 189° South 449 517 34,600 -960 Descending FlightAware ADS-B (KMCO)
12:45PM 30.0555 -82.2713 189° South 460 529 33,600 -1,020 Descending FlightAware ADS-B (KMCO)
12:46PM 29.9314 -82.2944 189° South 449 517 32,600 -1,080 Descending FlightAware ADS-B (KMCO)
12:46PM 29.8469 -82.3101 189° South 445 512 31,800 -1,740 Descending FlightAware ADS-B (KMCO)
12:47PM 29.7651 -82.3253 189° South 436 502 30,300 -2,220 Descending FlightAware ADS-B (KMCO)
12:48PM 29.6528 -82.3460 189° South 419 482 28,100 -2,160 Descending FlightAware ADS-B (KMCO)
12:49PM 29.5708 -82.3565 177° South 408 470 26,700 -1,920 Descending FlightAware ADS-B (KMCO)
12:49PM 29.4987 -82.3475 174° South 396 456 25,600 -1,860 Descending FlightAware ADS-B (KMCO)
12:50PM 29.3897 -82.3343 174° South 391 450 23,700 -1,860 Descending FlightAware ADS-B (KMCO)
12:51PM 29.2856 -82.3221 174° South 377 434 21,900 -1,740 Descending FlightAware ADS-B (KMCO)
12:52PM 29.1841 -82.3099 174° South 365 420 20,300 -1,680 Descending FlightAware ADS-B (KMCO)
12:53PM 29.1240 -82.3028 174° South 358 412 19,300 -1,800 Descending FlightAware ADS-B (KMCO)
12:54PM 29.0129 -82.2897 174° South 347 399 17,100 -1,740 Descending FlightAware ADS-B (KMCO)
12:55PM 28.9542 -82.2826 174° South 347 399 16,300 -1,560 Descending FlightAware ADS-B (KMCO)
12:56PM 28.8513 -82.2705 174° South 336 387 14,600 -1,800 Descending FlightAware ADS-B (KMCO)
12:56PM 28.8015 -82.2645 174° South 341 392 13,400 -1,200 Descending FlightAware ADS-B (KMCO)
12:59PM 28.5755 -82.2735 213° Southwest 307 353 10,800 -1,020 Descending FlightAware ADS-B (KMCO)
12:59PM 28.5528 -82.3075 246° West 312 359 10,400 -960 Descending FlightAware ADS-B (KMCO)
01:00PM 28.5388 -82.3472 249° West 312 359 9,800 -780 Descending FlightAware ADS-B (KMCO)
01:00PM 28.5167 -82.4167 249° West 313 360 9,500 -840 Descending Tampa TRACON
01:01PM 28.4833 -82.5000 246° West 308 354 8,500 -960 Descending Tampa TRACON
01:02PM 28.4500 -82.6000 249° West 302 348 7,600 -960 Descending Tampa TRACON
01:03PM 28.4167 -82.6833 246° West 297 342 6,600 -960 Descending Tampa TRACON
01:04PM 28.3667 -82.7333 221° Southwest 278 320 5,700 -840 Descending Tampa TRACON
01:05PM 28.2833 -82.7167 170° South 264 304 5,000 -720 Descending Tampa TRACON
01:06PM 28.2167 -82.7000 168° South 265 305 4,300 -1,140 Descending Tampa TRACON
01:08PM 28.1500 -82.6833 168° South 265 305 2,800 -1,260 Descending Tampa TRACON
01:09PM 28.0667 -82.6667 170° South 255 293 1,800 -660 Descending Tampa TRACON
01:10PM 28.0167 -82.6667 180° South 206 237 1,500 -480 Descending Tampa TRACON
01:11PM 27.9667 -82.6833 196° South 168 193 900 -660 Descending Tampa TRACON
01:12PM 27.9333 -82.7000 204° Southwest 125 144 200 -720 Descending Tampa TRACON
01:14PM 27.9100 -82.6875 310° West  Level Estimated
01:21PM 27.9100 -82.6875 310° West  Level Estimated